Time;durP1;ratioP1;P1;durP2;ratioP2;P2;SDS_P1;SDS_P2;PMS_P1;PMS_P2;Temp;Humidity;BMP_temperature;BMP_pressure;BME280_temperature;BME280_humidity;BME280_pressure;Samples;Min_cycle;Max_cycle;Signal;HPM_P1;HPM_P2
2021/03/23 00:00:53;;;;;;;6.90;1.47;;;;;;;1.82;42.71;97900.00;10544590;28;20048;-56
2021/03/23 00:05:55;;;;;;;;;;;;;;;1.76;43.34;97894.47;10547475;28;20286;-53
2021/03/23 00:11:01;;;;;;;5.82;2.10;;;;;;;1.71;43.40;97894.00;10539306;28;19928;-52
2021/03/23 00:16:03;;;;;;;12.10;2.50;;;;;;;1.70;44.05;97906.16;10503569;28;20071;-54
2021/03/23 00:21:05;;;;;;;5.13;2.30;;;;;;;1.68;44.10;97909.78;10519258;28;20400;-53
2021/03/23 00:26:09;;;;;;;5.25;1.75;;;;;;;1.67;44.41;97905.56;10540907;28;20055;-55
2021/03/23 00:31:10;;;;;;;4.32;1.50;;;;;;;1.53;44.39;97906.59;10537532;28;20561;-52
2021/03/23 00:36:16;;;;;;;4.75;1.88;;;;;;;1.43;44.66;97916.03;10506455;28;20044;-54
2021/03/23 00:41:18;;;;;;;5.15;1.92;;;;;;;1.35;45.25;97917.41;10504483;28;20039;-59
2021/03/23 00:46:20;;;;;;;5.93;1.90;;;;;;;1.25;45.50;97926.84;10530351;28;20045;-53
2021/03/23 00:51:22;;;;;;;3.25;0.90;;;;;;;1.18;45.19;97915.31;10498204;28;20055;-51
2021/03/23 00:56:24;;;;;;;5.93;1.48;;;;;;;1.17;45.18;97924.03;10502912;28;20064;-62
2021/03/23 01:01:26;;;;;;;4.30;1.55;;;;;;;1.14;45.82;97927.66;10502053;28;20500;-52
2021/03/23 01:06:27;;;;;;;6.00;1.80;;;;;;;1.07;45.87;97930.81;10501185;28;20044;-58
2021/03/23 01:11:30;;;;;;;4.50;2.00;;;;;;;1.08;46.24;97932.47;10497465;28;20053;-52
2021/03/23 01:16:31;;;;;;;4.25;1.58;;;;;;;1.12;45.48;97933.88;10510928;28;20056;-53
2021/03/23 01:21:33;;;;;;;3.22;1.30;;;;;;;1.14;45.45;97940.59;10522590;28;20092;-54
2021/03/23 01:26:35;;;;;;;3.53;1.35;;;;;;;1.14;46.08;97955.31;10499239;28;20049;-55
2021/03/23 01:31:37;;;;;;;4.50;1.60;;;;;;;1.10;45.99;97951.28;10497048;28;20143;-53
2021/03/23 01:36:39;;;;;;;5.97;1.75;;;;;;;1.09;46.49;97962.56;10497990;28;20044;-52
2021/03/23 01:41:41;;;;;;;3.88;1.38;;;;;;;1.16;46.27;97961.16;10502379;28;20062;-53
2021/03/23 01:46:44;;;;;;;4.38;1.60;;;;;;;1.16;46.36;97961.16;10504740;28;20477;-52
2021/03/23 01:51:49;;;;;;;4.13;1.30;;;;;;;1.21;46.84;97964.25;10548400;28;20071;-53
2021/03/23 01:56:54;;;;;;;4.68;1.15;;;;;;;1.19;47.18;97975.66;10549592;28;20063;-55
2021/03/23 02:01:59;;;;;;;5.38;1.63;;;;;;;1.21;47.31;97982.38;10509833;28;20044;-53
2021/03/23 02:07:01;;;;;;;6.72;1.77;;;;;;;1.25;47.70;97988.97;10506506;28;20143;-53
2021/03/23 02:12:06;;;;;;;5.03;1.42;;;;;;;1.37;47.54;97993.22;10506374;28;20044;-55
2021/03/23 02:17:17;;;;;;;4.07;1.40;;;;;;;1.38;47.50;97994.84;10506320;28;20060;-53
2021/03/23 02:22:27;;;;;;;4.25;1.50;;;;;;;1.36;47.34;98001.13;10506728;28;20060;-53
2021/03/23 02:27:30;;;;;;;3.58;1.27;;;;;;;1.48;47.12;97999.34;10505558;28;20041;-52
2021/03/23 02:32:31;;;;;;;4.72;1.50;;;;;;;1.41;47.34;98011.13;10506566;28;20049;-51
2021/03/23 02:37:34;;;;;;;3.55;1.30;;;;;;;1.38;47.40;98015.56;10538100;28;20112;-66
2021/03/23 02:42:35;;;;;;;3.97;1.48;;;;;;;1.36;48.04;98027.81;10545843;28;20105;-53
2021/03/23 02:47:37;;;;;;;3.53;1.08;;;;;;;1.46;47.31;98027.16;10546095;28;20089;-57
2021/03/23 02:52:39;;;;;;;4.47;1.70;;;;;;;1.40;47.78;98030.19;10546678;28;20059;-53
2021/03/23 02:57:41;;;;;;;5.90;2.10;;;;;;;1.30;47.87;98041.22;10540897;28;20122;-52
2021/03/23 03:02:43;;;;;;;4.10;1.65;;;;;;;1.33;48.27;98048.75;10541305;28;20052;-52
2021/03/23 03:07:45;;;;;;;4.80;1.40;;;;;;;1.33;48.32;98053.94;10546015;28;20052;-51
2021/03/23 03:12:47;;;;;;;3.85;1.23;;;;;;;1.25;48.23;98053.66;10551132;28;20088;-55
2021/03/23 03:17:48;;;;;;;5.88;1.50;;;;;;;1.24;48.24;98059.78;10546324;28;20127;-53
2021/03/23 03:22:52;;;;;;;5.70;1.50;;;;;;;1.25;48.30;98071.78;10504806;28;20390;-51
2021/03/23 03:27:53;;;;;;;4.50;1.37;;;;;;;1.21;48.26;98078.13;10531951;28;20370;-55
2021/03/23 03:32:56;;;;;;;4.13;1.40;;;;;;;1.18;48.38;98088.72;10550059;28;20305;-54
2021/03/23 03:37:59;;;;;;;4.13;1.08;;;;;;;1.17;48.35;98089.66;10531734;28;20416;-52
2021/03/23 03:43:01;;;;;;;5.00;1.88;;;;;;;1.30;48.72;98092.19;10513833;28;20459;-53
2021/03/23 03:48:04;;;;;;;5.25;1.48;;;;;;;1.45;48.23;98093.66;10545435;28;20055;-52
2021/03/23 03:53:07;;;;;;;3.70;1.50;;;;;;;1.55;48.30;98104.16;10521952;28;20135;-53
2021/03/23 03:58:09;;;;;;;4.67;1.87;;;;;;;1.63;48.45;98106.97;10504097;28;20048;-52
2021/03/23 04:03:14;;;;;;;4.50;1.63;;;;;;;1.68;48.19;98120.44;10502276;28;20071;-53
2021/03/23 04:08:19;;;;;;;6.45;1.52;;;;;;;1.83;48.34;98118.47;10503350;28;20076;-52
2021/03/23 04:13:21;;;;;;;5.53;1.70;;;;;;;2.05;48.43;98130.63;10508226;28;20573;-55
2021/03/23 04:18:25;;;;;;;6.57;2.10;;;;;;;2.12;48.18;98133.59;10514037;28;20423;-53
2021/03/23 04:23:29;;;;;;;5.60;1.70;;;;;;;2.29;47.78;98141.75;10502657;28;20052;-55
2021/03/23 04:28:31;;;;;;;5.60;2.08;;;;;;;2.63;46.89;98148.69;10503870;28;20052;-53
2021/03/23 04:33:33;;;;;;;5.78;2.30;;;;;;;2.90;47.09;98151.75;10502606;28;20499;-53
2021/03/23 04:38:37;;;;;;;4.93;2.05;;;;;;;3.10;46.47;98157.13;10500174;28;20048;-53
2021/03/23 04:43:41;;;;;;;4.85;1.73;;;;;;;3.29;45.87;98169.47;10500958;28;20451;-53
2021/03/23 04:48:43;;;;;;;7.55;2.40;;;;;;;3.62;46.03;98176.34;10500604;28;20465;-53
2021/03/23 04:53:45;;;;;;;5.95;2.30;;;;;;;4.08;45.58;98172.56;10500085;28;20060;-53
2021/03/23 04:58:47;;;;;;;6.70;2.83;;;;;;;5.94;45.12;98184.25;10500142;28;20048;-52
2021/03/23 05:03:53;;;;;;;4.75;1.98;;;;;;;6.59;41.64;98184.38;10499663;28;20056;-54
2021/03/23 05:08:56;;;;;;;6.07;2.83;;;;;;;6.41;42.13;98196.53;10501678;28;20052;-53
2021/03/23 05:13:58;;;;;;;8.55;2.38;;;;;;;6.59;40.97;98196.59;10499843;28;20074;-53
2021/03/23 05:19:01;;;;;;;5.15;1.80;;;;;;;6.52;40.91;98201.56;10498839;28;20055;-55
2021/03/23 05:24:04;;;;;;;4.63;1.92;;;;;;;6.48;40.89;98217.66;10505510;28;20060;-54
2021/03/23 05:29:06;;;;;;;5.03;2.22;;;;;;;6.69;40.49;98215.69;10507731;28;20078;-54
2021/03/23 05:34:11;;;;;;;5.97;1.80;;;;;;;7.09;40.25;98223.22;10508086;28;20044;-54
2021/03/23 05:39:13;;;;;;;5.10;2.35;;;;;;;7.47;39.61;98233.59;10508118;28;20044;-54
2021/03/23 05:44:28;;;;;;;5.20;1.70;;;;;;;7.89;38.80;98246.13;10507747;28;20378;-53
2021/03/23 05:49:36;;;;;;;5.15;1.95;;;;;;;7.44;38.64;98254.81;10508068;28;20105;-52
2021/03/23 05:54:48;;;;;;;5.95;2.00;;;;;;;7.48;38.59;98269.22;10507983;28;20048;-52
2021/03/23 05:59:55;;;;;;;5.43;2.25;;;;;;;7.49;38.32;98270.91;10506315;28;20463;-52
2021/03/23 06:05:25;;;;;;;5.35;2.10;;;;;;;7.41;38.55;98273.41;10506611;28;20056;-54
2021/03/23 06:10:28;;;;;;;5.28;2.00;;;;;;;7.35;38.80;98280.03;10492268;28;20056;-57
2021/03/23 06:15:37;;;;;;;4.90;2.40;;;;;;;7.52;38.68;98287.09;10506748;28;20048;-53
2021/03/23 06:20:45;;;;;;;4.72;1.83;;;;;;;8.17;37.79;98296.59;10506575;28;20351;-54
2021/03/23 06:25:57;;;;;;;4.57;1.67;;;;;;;8.90;36.24;98296.38;10506903;28;20075;-53
2021/03/23 06:31:03;;;;;;;6.72;2.03;;;;;;;12.05;33.90;98300.38;10506220;28;20101;-53
2021/03/23 06:36:18;;;;;;;5.85;1.90;;;;;;;12.29;31.78;98304.66;10520152;28;20044;-57
2021/03/23 06:41:24;;;;;;;3.97;1.73;;;;;;;11.47;32.28;98307.72;10520310;28;20040;-63
2021/03/23 06:46:41;;;;;;;4.28;1.77;;;;;;;13.27;32.47;98312.53;10513643;28;20040;-54
2021/03/23 06:52:04;;;;;;;4.10;1.70;;;;;;;19.49;26.62;98309.53;10518816;28;20079;-55
2021/03/23 06:57:16;;;;;;;4.30;1.88;;;;;;;23.12;21.31;98304.19;10510488;28;20097;-54
2021/03/23 07:02:33;;;;;;;5.70;2.10;;;;;;;20.30;21.00;98309.34;10504080;28;20102;-54
2021/03/23 07:07:49;;;;;;;5.53;2.10;;;;;;;16.34;23.38;98311.31;10502843;28;20059;-53
2021/03/23 07:12:52;;;;;;;5.78;2.25;;;;;;;13.22;25.68;98335.97;10502701;28;20052;-54
2021/03/23 07:17:56;;;;;;;6.78;2.50;;;;;;;12.67;27.09;98343.22;10502602;28;20098;-54
2021/03/23 07:22:58;;;;;;;6.00;1.80;;;;;;;11.52;27.30;98358.84;10502456;28;20485;-56
2021/03/23 07:28:31;;;;;;;4.78;1.88;;;;;;;11.18;27.63;98358.28;10503393;28;20066;-55
2021/03/23 07:33:48;;;;;;;4.25;1.58;;;;;;;11.38;27.59;98351.63;10504199;28;20139;-53
2021/03/23 07:38:55;;;;;;;4.57;1.88;;;;;;;13.77;26.91;98365.59;10503048;28;20040;-55
2021/03/23 07:44:05;;;;;;;5.07;2.30;;;;;;;15.31;24.82;98369.56;10501698;28;20040;-55
2021/03/23 07:49:30;;;;;;;6.22;2.75;;;;;;;16.68;23.83;98370.53;10501797;28;20048;-55
2021/03/23 07:54:36;;;;;;;4.60;2.05;;;;;;;15.13;23.04;98378.00;10501873;28;20040;-54
2021/03/23 07:59:54;;;;;;;6.50;2.15;;;;;;;14.34;24.19;98372.75;10500857;28;20109;-54
2021/03/23 08:05:03;;;;;;;5.93;2.10;;;;;;;14.43;23.97;98387.50;10501670;28;20051;-54
2021/03/23 08:10:21;;;;;;;5.05;2.13;;;;;;;13.57;23.96;98397.00;10503227;28;20481;-54
2021/03/23 08:15:47;;;;;;;5.57;2.47;;;;;;;12.97;24.46;98398.72;10500408;28;20075;-54
2021/03/23 08:21:05;;;;;;;5.93;2.30;;;;;;;12.62;24.55;98408.03;10499148;28;20052;-52
2021/03/23 08:26:16;;;;;;;3.75;1.75;;;;;;;11.03;25.92;98408.09;10418520;28;20041;-56
2021/03/23 08:31:39;;;;;;;6.15;2.08;;;;;;;10.13;27.30;98414.03;10420844;28;20041;-54
2021/03/23 08:37:05;;;;;;;5.45;2.40;;;;;;;10.06;27.50;98413.00;10418983;28;20049;-61
2021/03/23 08:42:13;;;;;;;9.13;3.40;;;;;;;9.90;27.96;98419.00;10418075;28;20045;-54
2021/03/23 08:47:27;;;;;;;5.57;2.30;;;;;;;9.43;28.00;98431.72;10422812;28;20050;-54
2021/03/23 08:52:40;;;;;;;7.03;2.47;;;;;;;8.82;28.44;98427.34;10419208;28;20053;-54
2021/03/23 08:57:52;;;;;;;4.90;1.50;;;;;;;8.69;29.03;98439.03;10418554;28;20548;-54
2021/03/23 09:02:54;;;;;;;7.15;2.13;;;;;;;8.10;29.25;98437.72;10418326;28;20300;-54
2021/03/23 09:08:18;;;;;;;7.40;2.00;;;;;;;7.84;29.69;98454.06;10421528;28;20369;-58
2021/03/23 09:13:24;;;;;;;6.30;2.00;;;;;;;7.91;30.10;98451.69;10419586;28;20060;-53
2021/03/23 09:18:29;;;;;;;5.38;1.88;;;;;;;7.91;29.51;98463.97;10416973;28;20060;-56
2021/03/23 09:23:50;;;;;;;6.13;2.15;;;;;;;7.71;30.07;98474.50;10459656;28;20053;-54
2021/03/23 09:28:52;;;;;;;7.45;2.28;;;;;;;7.82;30.40;98466.50;10499229;28;20389;-55
2021/03/23 09:33:56;;;;;;;5.53;1.77;;;;;;;8.16;29.51;98468.56;10499898;28;20055;-53
2021/03/23 09:39:19;;;;;;;;;;;;;;;8.04;29.84;98474.94;10500164;28;20060;-56
2021/03/23 09:44:40;;;;;;;5.68;2.25;;;;;;;8.07;29.84;98488.56;10499447;28;19924;-52
2021/03/23 09:49:48;;;;;;;4.72;1.85;;;;;;;7.87;29.48;98483.53;10500356;28;20098;-55
2021/03/23 09:54:55;;;;;;;8.27;2.08;;;;;;;7.42;29.92;98492.03;10499166;28;20414;-55
2021/03/23 10:00:00;;;;;;;5.28;1.45;;;;;;;7.05;30.38;98503.22;10499565;28;20048;-54
2021/03/23 10:05:17;;;;;;;4.55;2.10;;;;;;;6.97;30.84;98503.09;10498818;28;20053;-56
2021/03/23 10:10:26;;;;;;;6.28;2.35;;;;;;;7.14;30.50;98508.47;10503554;28;20048;-56
2021/03/23 10:15:32;;;;;;;6.82;2.63;;;;;;;7.23;30.69;98514.63;10507291;28;20068;-55
2021/03/23 10:20:34;;;;;;;8.02;2.15;;;;;;;6.81;30.55;98514.91;10507448;28;20378;-57
2021/03/23 10:25:36;;;;;;;6.82;1.73;;;;;;;6.56;30.79;98518.00;10509060;28;20052;-52
2021/03/23 10:30:38;;;;;;;4.25;1.15;;;;;;;6.47;31.30;98518.84;10506244;28;20056;-55
2021/03/23 10:35:53;;;;;;;6.80;2.00;;;;;;;6.33;30.63;98518.25;10506846;28;20390;-54
2021/03/23 10:40:57;;;;;;;4.45;1.42;;;;;;;6.31;30.87;98520.19;10510898;28;20052;-53
2021/03/23 10:46:01;;;;;;;6.60;1.95;;;;;;;6.37;30.44;98530.09;10506087;28;20473;-52
2021/03/23 10:51:19;;;;;;;4.20;1.42;;;;;;;6.40;30.62;98540.25;10505808;28;20101;-53
2021/03/23 10:56:21;;;;;;;6.93;1.17;;;;;;;6.71;30.67;98532.34;10506342;28;20056;-52
2021/03/23 11:01:23;;;;;;;3.70;1.23;;;;;;;6.90;30.12;98535.00;10505433;28;20174;-54
2021/03/23 11:06:29;;;;;;;4.80;1.38;;;;;;;7.28;29.70;98554.25;10505781;28;20143;-54
2021/03/23 11:11:31;;;;;;;3.80;0.95;;;;;;;7.40;29.54;98559.34;10508203;28;20102;-54
2021/03/23 11:16:37;;;;;;;4.57;1.50;;;;;;;7.41;28.82;98546.13;10511642;28;20071;-52
2021/03/23 11:21:42;;;;;;;4.20;1.48;;;;;;;7.17;28.98;98545.72;10504919;28;20056;-54
2021/03/23 11:26:44;;;;;;;4.60;1.60;;;;;;;7.10;29.04;98558.53;10506116;28;20105;-53
2021/03/23 11:31:46;;;;;;;5.65;2.00;;;;;;;7.04;29.37;98548.63;10504778;28;20480;-55
2021/03/23 11:36:50;;;;;;;7.20;1.73;;;;;;;7.04;29.54;98557.28;10505176;28;20045;-55
2021/03/23 11:42:01;;;;;;;5.82;2.15;;;;;;;7.27;29.09;98555.22;10504584;28;20052;-55
2021/03/23 11:47:10;;;;;;;5.70;1.50;;;;;;;7.52;28.80;98568.72;10503462;28;20420;-53
2021/03/23 11:52:15;;;;;;;4.90;1.63;;;;;;;7.45;29.23;98578.06;10503756;28;20044;-53
2021/03/23 11:57:18;;;;;;;7.80;1.67;;;;;;;7.56;28.58;98575.31;10504125;28;20492;-53
2021/03/23 12:02:20;;;;;;;4.75;1.90;;;;;;;7.44;29.09;98586.88;10503181;28;20051;-57
2021/03/23 12:07:38;;;;;;;7.10;2.35;;;;;;;7.33;28.90;98591.28;10503146;28;20074;-55
2021/03/23 12:12:45;;;;;;;4.05;1.73;;;;;;;6.76;29.11;98600.69;10502167;28;20055;-53
2021/03/23 12:17:55;;;;;;;6.25;1.77;;;;;;;6.63;29.18;98613.16;10502121;28;20147;-53
2021/03/23 12:22:58;;;;;;;4.82;1.85;;;;;;;6.51;29.52;98627.25;10501154;28;20545;-52
2021/03/23 12:28:00;;;;;;;5.95;1.73;;;;;;;6.16;29.97;98620.66;10501674;28;20142;-56
2021/03/23 12:33:02;;;;;;;6.35;2.10;;;;;;;6.11;30.08;98641.06;10499704;28;20048;-53
2021/03/23 12:38:06;;;;;;;5.78;2.00;;;;;;;6.11;30.22;98623.63;10502195;28;20044;-54
2021/03/23 12:43:15;;;;;;;7.28;2.03;;;;;;;6.11;29.85;98643.69;10502081;28;20081;-52
2021/03/23 12:48:17;;;;;;;6.57;1.90;;;;;;;6.44;29.63;98640.84;10500864;28;20044;-54
2021/03/23 12:53:22;;;;;;;8.18;2.58;;;;;;;6.35;29.03;98638.19;10501756;28;20056;-53
2021/03/23 12:58:30;;;;;;;7.25;2.78;;;;;;;6.34;29.74;98639.97;10502859;28;20489;-60
2021/03/23 13:03:31;;;;;;;6.97;2.50;;;;;;;6.31;29.42;98635.00;10501374;28;20131;-52
2021/03/23 13:08:36;;;;;;;6.22;2.75;;;;;;;6.20;29.63;98637.69;10499230;28;20102;-55
2021/03/23 13:13:45;;;;;;;7.20;3.05;;;;;;;6.16;29.44;98647.56;10500049;28;20141;-53
2021/03/23 13:18:47;;;;;;;9.25;3.20;;;;;;;6.36;29.73;98658.94;10499772;28;20393;-55
2021/03/23 13:23:53;;;;;;;9.15;2.42;;;;;;;6.47;29.14;98662.44;10497652;28;20060;-56
2021/03/23 13:29:02;;;;;;;6.22;2.15;;;;;;;6.22;29.40;98661.88;10498633;28;20104;-55
2021/03/23 13:34:05;;;;;;;5.80;2.53;;;;;;;5.90;29.87;98660.13;10502491;28;20073;-54
2021/03/23 13:39:13;;;;;;;7.72;2.75;;;;;;;5.72;29.97;98674.66;10502538;28;20380;-52
2021/03/23 13:44:33;;;;;;;4.78;2.00;;;;;;;5.59;29.86;98680.06;10502781;28;20054;-54
2021/03/23 13:49:35;;;;;;;6.53;2.67;;;;;;;5.50;30.03;98680.81;10506931;28;20058;-53
2021/03/23 13:54:37;;;;;;;7.38;2.85;;;;;;;5.67;30.18;98689.88;10507585;28;20044;-53
2021/03/23 13:59:39;;;;;;;6.25;2.70;;;;;;;5.83;29.72;98685.06;10506033;28;20048;-62
2021/03/23 14:04:41;;;;;;;5.45;2.45;;;;;;;5.78;29.51;98684.59;10506585;28;20389;-54
2021/03/23 14:09:46;;;;;;;7.30;2.60;;;;;;;5.65;29.91;98689.16;10506746;28;20492;-52
2021/03/23 14:14:48;;;;;;;7.30;3.28;;;;;;;5.73;29.79;98687.59;10506637;28;20411;-54
2021/03/23 14:19:50;;;;;;;8.38;2.70;;;;;;;5.65;30.38;98689.16;10509440;28;20105;-55
2021/03/23 14:24:53;;;;;;;5.72;2.67;;;;;;;5.65;30.19;98684.78;10506537;28;20056;-57
2021/03/23 14:29:54;;;;;;;7.13;2.93;;;;;;;5.65;30.42;98692.59;10511304;28;20048;-53
2021/03/23 14:34:56;;;;;;;8.13;3.20;;;;;;;5.61;30.72;98686.00;10510013;28;20040;-56
2021/03/23 14:39:58;;;;;;;9.85;3.03;;;;;;;5.43;30.28;98696.09;10506513;28;20420;-56
2021/03/23 14:45:00;;;;;;;7.78;3.17;;;;;;;5.29;30.64;98704.19;10505406;28;20058;-53
2021/03/23 14:50:01;;;;;;;9.57;3.92;;;;;;;5.06;30.79;98717.25;10506142;28;20059;-54
2021/03/23 14:55:07;;;;;;;7.00;2.90;;;;;;;5.20;31.01;98700.56;10503516;28;20059;-57
2021/03/23 15:00:10;;;;;;;7.35;3.00;;;;;;;5.18;30.58;98719.88;10506407;28;20093;-53
2021/03/23 15:05:13;;;;;;;6.60;2.90;;;;;;;5.18;30.44;98717.25;10505212;28;20381;-53
2021/03/23 15:10:22;;;;;;;9.50;3.00;;;;;;;5.00;30.76;98725.56;10504776;28;20063;-54
2021/03/23 15:15:26;;;;;;;9.20;2.97;;;;;;;4.93;30.83;98716.56;10505243;28;20439;-53
2021/03/23 15:20:30;;;;;;;9.18;2.80;;;;;;;4.89;31.05;98725.53;10503889;28;20253;-53
2021/03/23 15:25:35;;;;;;;9.23;3.20;;;;;;;4.80;30.62;98734.06;10503854;28;20087;-56
2021/03/23 15:30:36;;;;;;;9.90;2.20;;;;;;;4.65;30.88;98740.44;10534932;28;20104;-52
2021/03/23 15:35:38;;;;;;;5.50;2.28;;;;;;;4.61;31.07;98738.06;10534194;28;20047;-53
2021/03/23 15:40:41;;;;;;;5.03;1.85;;;;;;;4.58;31.17;98748.72;10503530;28;20516;-53
2021/03/23 15:45:43;;;;;;;7.25;2.28;;;;;;;4.50;31.06;98747.66;10505510;28;20068;-58
2021/03/23 15:50:45;;;;;;;5.97;2.03;;;;;;;4.50;31.13;98765.88;10509306;28;20056;-52
2021/03/23 15:55:47;;;;;;;6.63;3.10;;;;;;;4.46;31.16;98767.84;10502088;28;20045;-55
2021/03/23 16:00:49;;;;;;;7.80;2.10;;;;;;;4.50;31.64;98778.91;10531620;28;20052;-54
2021/03/23 16:05:51;;;;;;;4.63;2.00;;;;;;;4.40;31.39;98786.53;10543520;28;20044;-53
2021/03/23 16:10:54;;;;;;;5.88;2.45;;;;;;;4.21;31.64;98791.44;10543425;28;20056;-52
2021/03/23 16:15:56;;;;;;;6.45;2.35;;;;;;;4.12;31.87;98796.38;10544057;28;20036;-51
2021/03/23 16:20:58;;;;;;;7.85;2.45;;;;;;;4.00;31.85;98793.84;10544542;28;20044;-54
2021/03/23 16:26:01;;;;;;;5.25;2.00;;;;;;;3.84;32.14;98801.91;10542159;28;20090;-55
2021/03/23 16:31:07;;;;;;;8.45;2.97;;;;;;;3.59;32.45;98808.88;10540832;28;20699;-53
2021/03/23 16:36:09;;;;;;;7.72;2.50;;;;;;;3.47;33.46;98812.31;10541618;28;20408;-52
2021/03/23 16:41:13;;;;;;;6.60;2.50;;;;;;;3.43;33.19;98829.09;10527403;28;20063;-60
2021/03/23 16:46:18;;;;;;;7.97;3.00;;;;;;;3.38;33.84;98833.75;10501965;28;20053;-52
2021/03/23 16:51:29;;;;;;;6.07;2.65;;;;;;;3.41;33.74;98833.53;10511783;28;20090;-53
2021/03/23 16:56:31;;;;;;;8.68;2.60;;;;;;;3.49;33.84;98841.66;10496232;28;20048;-53
2021/03/23 17:01:33;;;;;;;7.15;2.33;;;;;;;3.59;33.85;98840.06;10500298;28;20171;-62
2021/03/23 17:06:35;;;;;;;6.03;2.45;;;;;;;3.60;34.26;98846.06;10500479;28;20052;-54
2021/03/23 17:11:38;;;;;;;8.95;2.47;;;;;;;3.61;33.89;98843.38;10499140;28;20078;-55
2021/03/23 17:16:40;;;;;;;6.65;2.78;;;;;;;3.51;33.92;98847.56;10499286;28;20049;-51
2021/03/23 17:21:41;;;;;;;9.07;2.25;;;;;;;3.36;34.22;98869.41;10499818;28;20056;-52
2021/03/23 17:26:44;;;;;;;8.15;3.00;;;;;;;3.22;34.64;98862.56;10504603;28;20067;-53
2021/03/23 17:31:46;;;;;;;6.68;2.85;;;;;;;3.10;34.68;98872.00;10502876;28;20106;-54
2021/03/23 17:36:47;;;;;;;9.18;2.67;;;;;;;3.04;34.27;98880.22;10504664;28;20093;-54
2021/03/23 17:41:50;;;;;;;4.68;2.10;;;;;;;2.97;34.10;98873.78;10498631;28;20138;-52
2021/03/23 17:46:52;;;;;;;4.88;2.05;;;;;;;2.86;34.70;98882.28;10499700;28;20509;-53
2021/03/23 17:51:53;;;;;;;7.68;2.95;;;;;;;2.79;34.65;98890.59;10499989;28;20048;-52
2021/03/23 17:56:56;;;;;;;8.23;2.88;;;;;;;2.75;34.25;98890.78;10499475;28;20048;-53
2021/03/23 18:01:57;;;;;;;6.97;2.40;;;;;;;2.67;34.28;98903.41;10500140;28;20481;-53
2021/03/23 18:06:59;;;;;;;6.43;2.78;;;;;;;2.59;34.89;98900.53;10499664;28;20048;-51
2021/03/23 18:12:02;;;;;;;7.68;2.85;;;;;;;2.53;34.96;98898.31;10498457;28;20453;-52
2021/03/23 18:17:04;;;;;;;6.95;2.10;;;;;;;2.47;35.28;98898.72;10499402;28;20041;-56
2021/03/23 18:22:07;;;;;;;6.10;2.90;;;;;;;2.40;35.36;98908.66;10498473;28;20103;-52
2021/03/23 18:27:09;;;;;;;7.97;2.90;;;;;;;2.35;35.16;98922.84;10499169;28;20469;-53
2021/03/23 18:32:12;;;;;;;8.10;2.72;;;;;;;2.36;35.11;98929.69;10504116;28;20048;-54
2021/03/23 18:37:15;;;;;;;6.00;2.40;;;;;;;2.30;35.00;98938.69;10506020;28;20082;-51
2021/03/23 18:42:18;;;;;;;7.00;3.37;;;;;;;2.25;35.12;98954.56;10506510;28;20496;-53
2021/03/23 18:47:20;;;;;;;7.20;2.88;;;;;;;2.24;35.31;98965.00;10508241;28;20041;-53
2021/03/23 18:52:22;;;;;;;6.63;2.85;;;;;;;2.22;35.23;98970.31;10510158;28;20114;-52
2021/03/23 18:57:25;;;;;;;9.95;3.08;;;;;;;2.18;35.49;98970.56;10516018;28;20048;-55
2021/03/23 19:02:26;;;;;;;8.60;2.90;;;;;;;2.14;35.52;98982.91;10511031;28;20045;-52
2021/03/23 19:07:28;;;;;;;6.05;2.75;;;;;;;2.11;35.49;99003.84;10512123;28;20056;-58
2021/03/23 19:12:31;;;;;;;7.10;2.85;;;;;;;2.05;35.77;99001.63;10510865;28;20366;-61
2021/03/23 19:17:32;;;;;;;10.48;3.25;;;;;;;1.99;36.02;99015.78;10508469;28;20044;-51
2021/03/23 19:22:34;;;;;;;6.90;2.55;;;;;;;1.97;36.11;99019.41;10504052;28;20072;-52
2021/03/23 19:27:38;;;;;;;9.55;3.17;;;;;;;1.97;36.27;99019.41;10503632;28;20455;-54
2021/03/23 19:32:39;;;;;;;7.15;2.85;;;;;;;1.94;35.92;99032.53;10504268;28;20058;-51
2021/03/23 19:37:41;;;;;;;7.88;3.38;;;;;;;1.92;36.39;99034.41;10503523;28;20109;-52
2021/03/23 19:42:43;;;;;;;8.07;3.05;;;;;;;1.88;36.58;99035.50;10503568;28;20110;-52
2021/03/23 19:47:46;;;;;;;7.53;2.72;;;;;;;1.85;36.52;99036.53;10503008;28;20068;-52
2021/03/23 19:52:47;;;;;;;10.65;3.28;;;;;;;1.80;36.08;99042.00;10501949;28;20063;-54
2021/03/23 19:57:50;;;;;;;7.93;2.83;;;;;;;1.74;36.99;99044.94;10502779;28;20052;-52
2021/03/23 20:02:53;;;;;;;7.53;2.97;;;;;;;1.71;36.35;99041.72;10502106;28;20053;-54
2021/03/23 20:07:55;;;;;;;8.02;3.15;;;;;;;1.66;36.76;99039.38;10502081;28;20072;-52
2021/03/23 20:12:58;;;;;;;8.30;2.70;;;;;;;1.65;36.70;99040.31;10507973;28;20081;-55
2021/03/23 20:18:00;;;;;;;9.65;2.78;;;;;;;1.62;36.64;99043.06;10507065;28;20465;-53
2021/03/23 20:23:02;;;;;;;10.07;3.15;;;;;;;1.65;36.68;99047.25;10501487;28;20068;-52
2021/03/23 20:28:06;;;;;;;8.82;3.58;;;;;;;1.62;36.89;99053.44;10501147;28;20044;-51
2021/03/23 20:33:10;;;;;;;8.70;3.20;;;;;;;1.55;36.94;99062.50;10502615;28;20044;-52
2021/03/23 20:38:14;;;;;;;10.02;3.72;;;;;;;1.54;37.04;99055.63;10501147;28;20052;-53
2021/03/23 20:43:19;;;;;;;8.55;3.47;;;;;;;1.50;36.75;99057.56;10501115;28;20507;-53
2021/03/23 20:48:22;;;;;;;10.30;4.07;;;;;;;1.52;36.83;99065.28;10501275;28;20040;-51
2021/03/23 20:53:27;;;;;;;9.07;3.50;;;;;;;1.48;36.50;99071.53;10500707;28;20044;-51
2021/03/23 20:58:29;;;;;;;11.45;3.72;;;;;;;1.45;36.85;99071.72;10504118;28;20143;-58
2021/03/23 21:03:32;;;;;;;7.10;2.92;;;;;;;1.40;36.54;99072.00;10505419;28;20040;-51
2021/03/23 21:08:35;;;;;;;5.13;2.17;;;;;;;1.32;37.40;99082.78;10500396;28;20382;-52
2021/03/23 21:13:40;;;;;;;7.53;3.38;;;;;;;1.27;37.42;99073.63;10500719;28;20048;-56
2021/03/23 21:18:43;;;;;;;10.35;2.95;;;;;;;1.27;36.94;99078.81;10506265;28;20128;-54
2021/03/23 21:23:45;;;;;;;6.85;2.65;;;;;;;1.27;36.98;99084.81;10502160;28;20451;-54
2021/03/23 21:28:47;;;;;;;6.78;2.55;;;;;;;1.27;37.44;99089.16;10499766;28;20522;-51
2021/03/23 21:33:49;;;;;;;7.82;3.13;;;;;;;1.24;37.22;99092.75;10514936;28;20090;-53
2021/03/23 21:38:51;;;;;;;9.35;2.95;;;;;;;1.22;37.35;99089.41;10542374;28;20059;-52
2021/03/23 21:43:55;;;;;;;10.00;3.25;;;;;;;1.21;37.40;99085.16;10541528;28;20056;-55
2021/03/23 21:48:57;;;;;;;8.55;3.60;;;;;;;1.18;36.96;99090.50;10541470;28;20047;-54
2021/03/23 21:53:59;;;;;;;8.30;2.95;;;;;;;1.17;37.48;99090.59;10541791;28;20044;-52
2021/03/23 21:59:02;;;;;;;7.78;2.80;;;;;;;1.13;37.62;99085.56;10544688;28;20678;-55
2021/03/23 22:04:06;;;;;;;8.73;2.63;;;;;;;1.09;37.56;99091.84;10543955;28;20055;-56
2021/03/23 22:09:10;;;;;;;10.23;3.55;;;;;;;1.05;37.90;99095.56;10550379;28;20365;-55
2021/03/23 22:14:13;;;;;;;9.55;3.28;;;;;;;1.02;37.70;99089.72;10550500;28;20040;-57
2021/03/23 22:19:15;;;;;;;6.97;2.47;;;;;;;1.02;38.09;99092.31;10550393;28;20052;-54
2021/03/23 22:24:16;;;;;;;7.10;3.10;;;;;;;1.01;38.22;99095.78;10549255;28;20063;-51
2021/03/23 22:29:19;;;;;;;14.23;3.63;;;;;;;0.98;38.38;99104.56;10549727;28;20067;-52
2021/03/23 22:34:20;;;;;;;8.95;3.50;;;;;;;0.96;38.31;99101.25;10549104;28;20044;-52
2021/03/23 22:39:23;;;;;;;8.90;3.60;;;;;;;0.96;38.22;99105.59;10548627;28;20056;-55
2021/03/23 22:44:25;;;;;;;10.82;3.53;;;;;;;0.92;38.04;99110.06;10550014;28;20044;-60
2021/03/23 22:49:27;;;;;;;6.80;2.95;;;;;;;0.89;38.34;99105.06;10549390;28;20048;-53
2021/03/23 22:54:28;;;;;;;8.30;3.17;;;;;;;0.88;38.77;99113.75;10549928;28;20044;-53
2021/03/23 22:59:31;;;;;;;8.55;3.33;;;;;;;0.88;38.68;99114.59;10550419;28;20059;-53
2021/03/23 23:04:32;;;;;;;8.98;3.05;;;;;;;0.86;38.74;99116.44;10549301;28;20044;-51
2021/03/23 23:09:34;;;;;;;7.25;3.47;;;;;;;0.82;38.54;99129.63;10547648;28;20078;-57
2021/03/23 23:14:36;;;;;;;9.93;3.90;;;;;;;0.83;38.46;99132.13;10553437;28;20044;-51
2021/03/23 23:19:38;;;;;;;12.68;3.53;;;;;;;0.86;38.55;99124.19;10549464;28;20433;-51
2021/03/23 23:24:48;;;;;;;8.70;3.60;;;;;;;0.87;38.54;99127.63;10547331;28;20052;-51
2021/03/23 23:29:51;;;;;;;10.15;4.70;;;;;;;0.87;38.52;99123.28;10548322;28;20475;-56
2021/03/23 23:34:52;;;;;;;8.65;3.97;;;;;;;0.84;39.04;99138.13;10547809;28;20052;-52
2021/03/23 23:39:54;;;;;;;8.15;3.50;;;;;;;0.77;38.81;99121.25;10546289;28;20058;-54
2021/03/23 23:44:56;;;;;;;8.45;3.88;;;;;;;0.75;38.79;99118.75;10544424;28;20051;-55
2021/03/23 23:49:58;;;;;;;8.40;3.35;;;;;;;0.69;38.74;99113.94;10545566;28;20048;-69